シンガポール/チャンギ の空港の天気 - METARとTAF

シンガポール・チャンギ国際空港 ( WSSS / SIN ) - シンガポール Changi
飛行場実況気象(Metar)
観測時間05/25 18:30 +08 (05/25 10:30 UTC)
風向・風速南南東 3m/s
視程10km以上
天気現象
少しの雲 雲底高度 610m
全天の8割程度の雲 雲底高度 9140m
気温29℃
湿度79%
気圧1007hPa
METARWSSS 251030Z 16005KT 090V200 9999 FEW020 BKN300 29/25 Q1007 NOSIG
過去の天気等 Google飛行場航空写真 Wunderground天気予報

過去48時間のMETAR

飛行場予報(TAF)
発表時間: 5/25 16:00 +08 (5/25 08:00 UTC)
予報対象時間: 25日16時 +08 ~ 26日20時 +08
風向・風速南 5m/s
視程10km以上
少しの積乱雲 雲底高度 550m
全天の4割程度の雲 雲底高度 610m
26日10時 +08 ~ 26日14時 +08 に一時的に
視程3,000m
天気現象雷雨
少しの積乱雲 雲底高度 370m
全天の8割程度の雲 雲底高度 460m
TAF AMD WSSS 250800Z 2508/2612 17009KT 9999 FEW018CB SCT020
TEMPO 2602/2606 3000 TSRA FEW012CB BKN015